Time;durP1;ratioP1;P1;durP2;ratioP2;P2;SDS_P1;SDS_P2;PMS_P1;PMS_P2;Temp;Humidity;BMP_temperature;BMP_pressure;BME280_temperature;BME280_humidity;BME280_pressure;Samples;Min_cycle;Max_cycle;Signal;HPM_P1;HPM_P2
2022/03/05 00:00:05;;;;;;;42.20;17.57;;;6.50;99.90;;;;;;5118411;23;20164;-94
2022/03/05 00:02:11;;;;;;;34.83;17.97;;;6.40;99.90;;;;;;5118388;23;20216;-93
2022/03/05 00:04:14;;;;;;;33.37;18.40;;;6.30;99.90;;;;;;5094895;23;20170;-93
2022/03/05 00:06:20;;;;;;;40.60;18.80;;;6.30;99.90;;;;;;5119313;23;20653;-93
2022/03/05 00:08:21;;;;;;;34.63;18.20;;;6.30;99.90;;;;;;5095367;23;20169;-93
2022/03/05 00:10:23;;;;;;;32.07;16.80;;;6.30;99.90;;;;;;5144229;23;20182;-92
2022/03/05 00:12:24;;;;;;;40.10;18.47;;;6.40;99.90;;;;;;5070429;23;20189;-93
2022/03/05 00:14:25;;;;;;;38.63;18.50;;;6.40;99.90;;;;;;5144234;23;20202;-93
2022/03/05 00:16:25;;;;;;;33.57;17.33;;;6.30;99.90;;;;;;5070685;23;20153;-91
2022/03/05 00:18:27;;;;;;;35.03;18.20;;;6.40;99.90;;;;;;5144390;23;20467;-92
2022/03/05 00:20:28;;;;;;;40.07;17.53;;;6.40;99.90;;;;;;5070847;23;20165;-92
2022/03/05 00:22:28;;;;;;;34.37;17.87;;;6.50;99.90;;;;;;5144345;23;20156;-92
2022/03/05 00:24:29;;;;;;;36.47;18.17;;;6.50;99.90;;;;;;5070580;23;20256;-93
2022/03/05 00:26:30;;;;;;;37.93;18.30;;;6.50;99.90;;;;;;5119280;23;20154;-91
2022/03/05 00:28:30;;;;;;;35.23;17.00;;;6.40;99.90;;;;;;5094689;23;20149;-93
2022/03/05 00:30:31;;;;;;;35.83;17.57;;;6.40;99.90;;;;;;5070364;23;20149;-93
2022/03/05 00:32:32;;;;;;;35.63;18.33;;;6.40;99.90;;;;;;5119026;23;20511;-94
2022/03/05 00:34:33;;;;;;;35.77;18.03;;;6.40;99.90;;;;;;5094312;23;20662;-93
2022/03/05 00:36:34;;;;;;;38.93;18.73;;;6.40;99.90;;;;;;5119306;23;20227;-92
2022/03/05 00:38:34;;;;;;;35.77;18.13;;;6.50;99.90;;;;;;5094709;23;20160;-92
2022/03/05 00:40:35;;;;;;;39.90;19.90;;;7.10;99.90;;;;;;5094522;23;20145;-92
2022/03/05 00:42:37;;;;;;;39.97;19.43;;;7.80;99.90;;;;;;5070150;23;20158;-93
2022/03/05 00:44:37;;;;;;;41.67;20.23;;;8.10;99.90;;;;;;5094392;23;20201;-92
2022/03/05 00:46:40;;;;;;;37.63;20.07;;;8.00;99.90;;;;;;5119287;23;20247;-92
2022/03/05 00:48:40;;;;;;;38.53;18.73;;;7.50;99.90;;;;;;5094608;23;20149;-93
2022/03/05 00:50:41;;;;;;;38.83;19.63;;;6.60;99.90;;;;;;5119207;23;20205;-93
2022/03/05 00:52:42;;;;;;;39.53;18.37;;;6.00;99.90;;;;;;5070081;23;20154;-92
2022/03/05 00:54:43;;;;;;;42.97;20.53;;;5.50;99.90;;;;;;5069627;23;20197;-93
2022/03/05 00:56:44;;;;;;;39.57;19.40;;;5.30;99.90;;;;;;5143623;23;20306;-93
2022/03/05 00:58:44;;;;;;;39.60;19.97;;;5.20;99.90;;;;;;5094381;23;20153;-93
2022/03/05 01:00:45;;;;;;;37.57;19.53;;;5.10;99.90;;;;;;5094402;23;20156;-93
2022/03/05 01:02:46;;;;;;;36.70;18.83;;;5.10;99.90;;;;;;5070177;23;20231;-93
2022/03/05 01:04:46;;;;;;;38.27;19.67;;;5.20;99.90;;;;;;5118847;23;20200;-94
2022/03/05 01:06:47;;;;;;;38.27;20.07;;;5.20;99.90;;;;;;5070046;23;20589;-93
2022/03/05 01:08:48;;;;;;;41.20;19.40;;;5.30;99.90;;;;;;5118471;23;20168;-93
2022/03/05 01:10:49;;;;;;;44.97;19.47;;;5.20;99.90;;;;;;5069796;23;20188;-93
2022/03/05 01:12:50;;;;;;;39.40;19.63;;;4.80;99.90;;;;;;5118808;23;20488;-92
2022/03/05 01:14:50;;;;;;;34.93;18.00;;;4.80;99.90;;;;;;5069593;23;20205;-93
2022/03/05 01:16:51;;;;;;;39.20;19.63;;;4.90;99.90;;;;;;5119158;23;20191;-93
2022/03/05 01:18:52;;;;;;;36.57;18.37;;;5.10;99.90;;;;;;5119168;23;20192;-92
2022/03/05 01:20:52;;;;;;;39.50;19.13;;;5.00;99.90;;;;;;5119044;23;20586;-93
2022/03/05 01:22:53;;;;;;;38.03;19.53;;;5.10;99.90;;;;;;5094358;23;20152;-93
2022/03/05 01:24:54;;;;;;;34.27;18.00;;;5.20;99.90;;;;;;5094265;23;20173;-93
2022/03/05 01:26:54;;;;;;;38.23;18.90;;;5.00;99.90;;;;;;5069933;23;20205;-93
2022/03/05 01:28:56;;;;;;;39.80;19.40;;;5.10;99.90;;;;;;5118906;23;20519;-92
2022/03/05 01:30:56;;;;;;;37.17;18.33;;;5.20;99.90;;;;;;5094356;23;20153;-92
2022/03/05 01:32:57;;;;;;;38.40;18.47;;;5.10;99.90;;;;;;5143590;23;20222;-93
2022/03/05 01:34:58;;;;;;;35.30;17.67;;;5.10;99.90;;;;;;5093915;23;20197;-92
2022/03/05 01:36:58;;;;;;;36.63;18.97;;;5.10;99.90;;;;;;5093981;23;20191;-92
2022/03/05 01:38:59;;;;;;;35.43;17.80;;;5.10;99.90;;;;;;5069574;23;20604;-93
2022/03/05 01:41:00;;;;;;;39.00;17.90;;;5.20;99.90;;;;;;5143586;23;20155;-92
2022/03/05 01:43:00;;;;;;;37.60;18.07;;;4.90;99.90;;;;;;5069712;23;20161;-93
2022/03/05 01:45:01;;;;;;;33.53;17.37;;;4.80;99.90;;;;;;5118550;23;20168;-93
2022/03/05 01:47:04;;;;;;;38.63;17.60;;;4.70;99.90;;;;;;5069792;23;20240;-92
2022/03/05 01:49:10;;;;;;;35.27;17.33;;;4.50;99.90;;;;;;5093929;23;20206;-92
2022/03/05 01:51:10;;;;;;;42.23;18.93;;;4.50;99.90;;;;;;5094169;23;20571;-93
2022/03/05 01:53:11;;;;;;;38.63;17.90;;;4.60;99.90;;;;;;5143447;23;20144;-93
2022/03/05 01:55:13;;;;;;;36.33;18.00;;;4.70;99.90;;;;;;5093724;23;20196;-92
2022/03/05 01:57:13;;;;;;;37.17;17.70;;;4.80;99.90;;;;;;5093986;23;20156;-92
2022/03/05 01:59:15;;;;;;;38.03;18.13;;;4.80;99.90;;;;;;5118522;23;20631;-93
2022/03/05 02:01:16;;;;;;;41.93;18.70;;;4.70;99.90;;;;;;5118779;23;20144;-92
2022/03/05 02:03:16;;;;;;;36.77;17.83;;;4.60;99.90;;;;;;5143467;23;20162;-93
2022/03/05 02:05:17;;;;;;;40.73;18.80;;;4.60;99.90;;;;;;5094077;23;20180;-92
2022/03/05 02:07:18;;;;;;;39.13;18.63;;;4.60;99.90;;;;;;5118541;23;20155;-92
2022/03/05 02:09:19;;;;;;;40.03;18.33;;;4.60;99.90;;;;;;5093730;23;20176;-93
2022/03/05 02:11:22;;;;;;;39.33;19.60;;;4.70;99.90;;;;;;5093871;23;20222;-92
2022/03/05 02:13:22;;;;;;;42.63;17.80;;;4.40;99.90;;;;;;5093921;23;20152;-93
2022/03/05 02:15:23;;;;;;;41.53;18.63;;;4.30;99.90;;;;;;5143307;23;20226;-93
2022/03/05 02:17:25;;;;;;;37.10;18.50;;;4.30;99.90;;;;;;5093746;23;20220;-92
2022/03/05 02:19:25;;;;;;;37.30;18.50;;;4.30;99.90;;;;;;5093574;23;20172;-92
2022/03/05 02:21:27;;;;;;;37.10;19.67;;;4.40;99.90;;;;;;5118301;23;20610;-93
2022/03/05 02:23:28;;;;;;;35.60;19.33;;;4.40;99.90;;;;;;5069389;23;20154;-93
2022/03/05 02:25:29;;;;;;;32.20;18.13;;;4.30;99.90;;;;;;5118060;23;20226;-93
2022/03/05 02:27:30;;;;;;;38.00;18.63;;;4.30;99.90;;;;;;5118347;23;20190;-93
2022/03/05 02:29:31;;;;;;;33.37;17.97;;;4.30;99.90;;;;;;5118725;23;20152;-93
2022/03/05 02:31:32;;;;;;;36.10;18.17;;;4.30;99.90;;;;;;5118519;23;20155;-92
2022/03/05 02:33:33;;;;;;;37.37;19.47;;;4.30;99.90;;;;;;5093877;23;20184;-93
2022/03/05 02:35:34;;;;;;;44.83;20.13;;;4.20;99.90;;;;;;5093929;23;20196;-93
2022/03/05 02:37:34;;;;;;;36.67;19.77;;;4.20;99.90;;;;;;5118611;23;20148;-92
2022/03/05 02:39:35;;;;;;;37.33;19.67;;;4.30;99.90;;;;;;5069452;23;20244;-93
2022/03/05 02:41:36;;;;;;;39.93;19.87;;;4.30;99.90;;;;;;5093629;23;20149;-93
2022/03/05 02:43:37;;;;;;;44.20;20.50;;;4.50;99.90;;;;;;5143204;23;20159;-92
2022/03/05 02:45:38;;;;;;;41.77;19.97;;;4.40;99.90;;;;;;5069306;23;20169;-92
2022/03/05 02:47:39;;;;;;;40.40;19.00;;;4.30;99.90;;;;;;5118227;23;20232;-92
2022/03/05 02:49:39;;;;;;;41.73;20.17;;;4.30;99.90;;;;;;5093620;23;20156;-93
2022/03/05 02:51:40;;;;;;;38.07;19.47;;;4.70;99.90;;;;;;5118170;23;20160;-92
2022/03/05 02:53:41;;;;;;;40.23;19.40;;;5.20;99.90;;;;;;5093419;23;20192;-92
2022/03/05 02:55:43;;;;;;;44.27;20.30;;;5.20;99.90;;;;;;5069187;23;20182;-93
2022/03/05 02:57:44;;;;;;;39.73;18.87;;;4.90;99.90;;;;;;5093706;23;20145;-92
2022/03/05 02:59:45;;;;;;;43.10;19.43;;;4.90;99.90;;;;;;5143123;23;20156;-92
2022/03/05 03:01:46;;;;;;;43.57;20.63;;;4.90;99.90;;;;;;5093719;23;20152;-92
2022/03/05 03:03:46;;;;;;;49.37;20.33;;;4.80;99.90;;;;;;5117979;23;20159;-92
2022/03/05 03:05:47;;;;;;;41.37;20.67;;;5.10;99.90;;;;;;5069277;23;20477;-92
2022/03/05 03:07:48;;;;;;;44.17;19.47;;;5.40;99.90;;;;;;5118198;23;20152;-93
2022/03/05 03:09:49;;;;;;;49.63;20.40;;;5.40;99.90;;;;;;5118035;23;20148;-94
2022/03/05 03:11:51;;;;;;;43.60;20.60;;;5.20;99.90;;;;;;5093378;23;20168;-93
2022/03/05 03:13:52;;;;;;;39.47;19.80;;;5.10;99.90;;;;;;5093120;23;20263;-92
2022/03/05 03:15:52;;;;;;;38.03;20.80;;;5.10;99.90;;;;;;5117928;23;20160;-93
2022/03/05 03:17:53;;;;;;;43.27;20.43;;;5.40;99.90;;;;;;5093719;23;20157;-93
2022/03/05 03:19:54;;;;;;;47.93;21.67;;;5.40;99.90;;;;;;5117827;23;20163;-93
2022/03/05 03:21:55;;;;;;;42.97;20.93;;;5.30;99.90;;;;;;5093534;23;20603;-93
2022/03/05 03:23:55;;;;;;;38.67;19.67;;;5.10;99.90;;;;;;5117908;23;20478;-93
2022/03/05 03:25:56;;;;;;;38.20;20.93;;;4.70;99.90;;;;;;5093685;23;20152;-92
2022/03/05 03:27:57;;;;;;;41.67;21.10;;;4.30;99.90;;;;;;5069161;23;20180;-93
2022/03/05 03:29:59;;;;;;;42.43;20.87;;;4.30;99.90;;;;;;5118060;23;20163;-93
2022/03/05 03:32:00;;;;;;;39.57;19.10;;;4.10;99.90;;;;;;5093495;23;20599;-92
2022/03/05 03:34:01;;;;;;;39.40;21.27;;;4.00;99.90;;;;;;5092964;23;20232;-93
2022/03/05 03:36:02;;;;;;;40.23;19.40;;;3.80;99.90;;;;;;5119147;23;20152;-94
2022/03/05 03:38:03;;;;;;;41.70;20.30;;;3.70;99.90;;;;;;5095425;23;20188;-93
2022/03/05 03:40:07;;;;;;;41.20;20.93;;;3.80;99.90;;;;;;5144826;23;20147;-92
2022/03/05 03:42:08;;;;;;;42.60;20.83;;;3.80;99.90;;;;;;5095173;23;20223;-93
2022/03/05 03:44:09;;;;;;;41.03;20.77;;;3.50;99.90;;;;;;5144972;23;20167;-92
2022/03/05 03:46:11;;;;;;;38.50;20.27;;;3.50;99.90;;;;;;5095428;23;20231;-92
2022/03/05 03:48:11;;;;;;;41.00;20.20;;;3.60;99.90;;;;;;5095281;23;20184;-92
2022/03/05 03:50:14;;;;;;;41.97;20.93;;;4.20;99.90;;;;;;5094829;23;20515;-93
2022/03/05 03:52:16;;;;;;;42.33;20.90;;;4.80;99.90;;;;;;5119569;23;20478;-92
2022/03/05 03:54:17;;;;;;;39.27;21.13;;;5.00;99.90;;;;;;5070402;23;20193;-91
2022/03/05 03:56:17;;;;;;;42.57;20.87;;;4.80;99.90;;;;;;5119509;23;20587;-93
2022/03/05 03:58:18;;;;;;;42.20;19.93;;;4.50;99.90;;;;;;5070266;23;20221;-92
2022/03/05 04:00:20;;;;;;;47.90;21.27;;;4.30;99.90;;;;;;5094969;23;20145;-93
2022/03/05 04:02:22;;;;;;;43.90;21.50;;;4.30;99.90;;;;;;5119383;23;20141;-92
2022/03/05 04:04:22;;;;;;;40.90;21.53;;;4.40;99.90;;;;;;5119221;23;20207;-94
2022/03/05 04:06:23;;;;;;;42.23;21.47;;;4.70;99.90;;;;;;5070299;23;20158;-93
2022/03/05 04:08:42;;;;;;;46.63;21.87;;;4.90;99.90;;;;;;5094328;23;20216;-91
2022/03/05 04:10:43;;;;;;;44.67;22.43;;;4.90;99.90;;;;;;5119293;23;20227;-92
2022/03/05 04:12:44;;;;;;;46.20;21.90;;;4.70;99.90;;;;;;5119302;23;20617;-93
2022/03/05 04:14:44;;;;;;;45.70;21.60;;;4.40;99.90;;;;;;5070077;23;20193;-93
2022/03/05 04:16:45;;;;;;;43.40;22.70;;;4.00;99.90;;;;;;5144290;23;20148;-91
2022/03/05 04:18:46;;;;;;;47.17;22.23;;;3.80;99.90;;;;;;5070444;23;20164;-92
2022/03/05 04:20:47;;;;;;;45.40;22.73;;;3.90;99.90;;;;;;5119444;23;20148;-93
2022/03/05 04:22:47;;;;;;;51.80;23.33;;;4.10;99.90;;;;;;5119065;23;20157;-92
2022/03/05 04:24:48;;;;;;;52.40;22.67;;;4.00;99.90;;;;;;5094358;23;20215;-92
2022/03/05 04:26:49;;;;;;;50.27;22.93;;;3.70;99.90;;;;;;5070063;23;20150;-93
2022/03/05 04:28:51;;;;;;;43.00;21.67;;;3.30;99.90;;;;;;5119309;23;20231;-93
2022/03/05 04:30:52;;;;;;;48.57;22.87;;;2.80;99.90;;;;;;5119280;23;20183;-92
2022/03/05 04:32:53;;;;;;;45.03;22.63;;;2.70;99.90;;;;;;5094566;23;20160;-93
2022/03/05 04:34:54;;;;;;;48.30;21.30;;;2.50;99.90;;;;;;5069877;23;20200;-93
2022/03/05 04:36:54;;;;;;;44.53;23.27;;;2.40;99.90;;;;;;5119136;23;20156;-93
2022/03/05 04:38:55;;;;;;;45.43;21.80;;;2.50;99.90;;;;;;5070306;23;20528;-93
2022/03/05 04:40:56;;;;;;;47.30;23.60;;;2.50;99.90;;;;;;5119148;23;20152;-92
2022/03/05 04:42:57;;;;;;;45.03;21.97;;;2.50;99.90;;;;;;5070143;23;20154;-92
2022/03/05 04:44:58;;;;;;;43.43;23.20;;;2.60;99.90;;;;;;5118776;23;20182;-92
2022/03/05 04:46:59;;;;;;;45.33;23.27;;;2.60;99.90;;;;;;5094284;23;20176;-92
2022/03/05 04:49:00;;;;;;;46.23;22.90;;;2.80;99.90;;;;;;5119069;23;20164;-92
2022/03/05 04:51:01;;;;;;;50.90;22.50;;;3.10;99.90;;;;;;5094496;23;20149;-92
2022/03/05 04:53:02;;;;;;;45.23;21.93;;;3.40;99.90;;;;;;5094681;23;20259;-93
2022/03/05 04:55:05;;;;;;;47.13;23.63;;;3.50;99.90;;;;;;5070208;23;20659;-93
2022/03/05 04:57:06;;;;;;;46.37;22.60;;;3.30;99.90;;;;;;5119312;23;20210;-93
2022/03/05 04:59:06;;;;;;;48.27;23.57;;;3.50;99.90;;;;;;5070053;23;20162;-92
2022/03/05 05:01:07;;;;;;;43.73;22.00;;;4.10;99.90;;;;;;5119146;23;20525;-93
2022/03/05 05:03:08;;;;;;;41.73;21.57;;;4.00;99.90;;;;;;5119098;23;20615;-93
2022/03/05 05:05:09;;;;;;;49.67;22.13;;;4.00;99.90;;;;;;5118987;23;20195;-92
2022/03/05 05:07:09;;;;;;;45.03;22.00;;;4.00;99.90;;;;;;5094386;23;20164;-93
2022/03/05 05:09:10;;;;;;;46.90;22.30;;;3.80;99.90;;;;;;5094038;23;20191;-92
2022/03/05 05:11:11;;;;;;;46.33;23.97;;;4.00;99.90;;;;;;5070060;23;20487;-92
2022/03/05 05:13:12;;;;;;;54.53;22.40;;;4.00;99.90;;;;;;5118734;23;20156;-92
2022/03/05 05:15:13;;;;;;;47.77;22.63;;;3.70;99.90;;;;;;5069641;23;20248;-92
2022/03/05 05:17:14;;;;;;;49.00;23.17;;;3.00;99.90;;;;;;5118871;23;20595;-92
2022/03/05 05:19:29;;;;;;;42.93;21.77;;;2.90;99.90;;;;;;5069775;23;20241;-92
2022/03/05 05:21:30;;;;;;;46.30;23.63;;;2.80;99.90;;;;;;5143803;23;20250;-91
2022/03/05 05:23:31;;;;;;;46.53;23.37;;;3.00;99.90;;;;;;5069964;23;20150;-93
2022/03/05 05:25:33;;;;;;;45.67;22.20;;;3.30;99.90;;;;;;5118767;23;20181;-92
2022/03/05 05:27:38;;;;;;;56.23;22.93;;;3.30;99.90;;;;;;5094073;23;20213;-93
2022/03/05 05:29:38;;;;;;;44.77;23.37;;;3.20;99.90;;;;;;5093991;23;20188;-92
2022/03/05 05:31:41;;;;;;;47.23;22.60;;;3.00;99.90;;;;;;5094126;23;20204;-91
2022/03/05 05:33:44;;;;;;;42.83;22.47;;;2.70;99.90;;;;;;5093907;23;20157;-93
2022/03/05 05:35:45;;;;;;;42.53;22.23;;;2.70;99.90;;;;;;5118727;23;20159;-92
2022/03/05 05:37:46;;;;;;;45.57;22.90;;;2.60;99.90;;;;;;5093859;23;20516;-91
2022/03/05 05:39:46;;;;;;;47.00;21.77;;;2.50;99.90;;;;;;5093902;23;20149;-92
2022/03/05 05:41:47;;;;;;;41.63;22.20;;;2.60;99.90;;;;;;5069325;23;20224;-92
2022/03/05 05:43:48;;;;;;;47.83;22.73;;;2.40;99.90;;;;;;5118848;23;20152;-92
2022/03/05 05:45:50;;;;;;;41.87;22.47;;;2.70;99.90;;;;;;5070001;23;20511;-92
2022/03/05 05:47:51;;;;;;;47.80;22.93;;;3.20;99.90;;;;;;5118498;23;20152;-92
2022/03/05 05:49:51;;;;;;;44.07;22.23;;;3.20;99.90;;;;;;5118599;23;20148;-92
2022/03/05 05:51:52;;;;;;;46.47;21.67;;;3.10;99.90;;;;;;5069454;23;20164;-92
2022/03/05 05:53:53;;;;;;;50.00;22.43;;;2.80;99.90;;;;;;5143190;23;20186;-92
2022/03/05 05:55:54;;;;;;;44.67;22.00;;;2.80;99.90;;;;;;5118516;23;20274;-93
2022/03/05 05:57:55;;;;;;;46.90;22.87;;;2.40;99.90;;;;;;5118087;23;20254;-92
2022/03/05 05:59:56;;;;;;;47.67;22.67;;;2.40;99.90;;;;;;5094045;23;20168;-93
2022/03/05 06:01:58;;;;;;;45.23;22.83;;;2.30;99.90;;;;;;5118601;23;20152;-93
2022/03/05 06:03:59;;;;;;;44.73;21.83;;;2.10;99.90;;;;;;5093714;23;20184;-92
2022/03/05 06:06:00;;;;;;;47.50;22.07;;;2.60;99.90;;;;;;5118497;23;20164;-92
2022/03/05 06:08:00;;;;;;;43.23;22.20;;;2.90;99.90;;;;;;5069738;23;20161;-93
2022/03/05 06:10:01;;;;;;;48.63;22.33;;;3.20;99.90;;;;;;5117508;23;20157;-93
2022/03/05 06:12:02;;;;;;;51.60;23.57;;;3.50;99.90;;;;;;5092820;23;20141;-93
2022/03/05 06:14:05;;;;;;;52.83;22.90;;;3.50;99.90;;;;;;5092632;23;20189;-91
2022/03/05 06:16:06;;;;;;;46.47;22.77;;;3.00;99.90;;;;;;5117656;23;20227;-92
2022/03/05 06:18:08;;;;;;;47.00;21.47;;;2.90;99.90;;;;;;5117461;23;20144;-93
2022/03/05 06:20:10;;;;;;;47.43;23.90;;;2.30;99.90;;;;;;5117296;23;20156;-93
2022/03/05 06:22:11;;;;;;;52.67;23.30;;;2.10;99.90;;;;;;5117550;23;20759;-92
2022/03/05 06:24:12;;;;;;;48.47;21.63;;;2.10;99.90;;;;;;5117535;23;20168;-92
2022/03/05 06:26:13;;;;;;;48.97;22.67;;;1.90;99.90;;;;;;5093192;23;20203;-93
2022/03/05 06:28:14;;;;;;;43.47;21.53;;;1.80;99.90;;;;;;5068589;23;20149;-93
2022/03/05 06:30:15;;;;;;;43.97;22.17;;;1.70;99.90;;;;;;5142328;23;20491;-92
2022/03/05 06:32:15;;;;;;;52.13;22.83;;;1.60;99.90;;;;;;5117563;23;20206;-92
2022/03/05 06:34:16;;;;;;;47.33;22.77;;;1.70;99.90;;;;;;5068305;23;20549;-92
2022/03/05 06:36:17;;;;;;;44.97;22.83;;;2.00;99.90;;;;;;5117444;23;20175;-93
2022/03/05 06:38:19;;;;;;;46.90;23.27;;;2.50;99.90;;;;;;5068512;23;20157;-92
2022/03/05 06:40:20;;;;;;;47.67;22.53;;;2.80;99.90;;;;;;5117053;23;20642;-92
2022/03/05 06:42:20;;;;;;;45.70;22.70;;;2.70;99.90;;;;;;5092668;23;20160;-93
2022/03/05 06:44:21;;;;;;;43.47;22.47;;;2.60;99.90;;;;;;5068274;23;20169;-94
2022/03/05 06:46:22;;;;;;;51.83;23.70;;;2.30;99.90;;;;;;5117324;23;20523;-93
2022/03/05 06:48:22;;;;;;;42.27;21.87;;;2.50;99.90;;;;;;5092781;23;20261;-93
2022/03/05 06:50:25;;;;;;;44.00;22.70;;;2.60;99.90;;;;;;5117413;23;20195;-92
2022/03/05 06:52:26;;;;;;;44.00;22.00;;;3.20;99.90;;;;;;5092749;23;20212;-93
2022/03/05 06:54:27;;;;;;;43.33;20.63;;;3.90;99.90;;;;;;5116931;23;20180;-93
2022/03/05 06:56:27;;;;;;;41.00;21.20;;;4.80;99.90;;;;;;5068537;23;20164;-93
2022/03/05 06:58:28;;;;;;;42.07;21.03;;;5.70;99.90;;;;;;5142261;23;20182;-94
2022/03/05 07:00:30;;;;;;;40.43;20.97;;;6.70;99.90;;;;;;5092298;23;20161;-92
2022/03/05 07:02:31;;;;;;;43.07;24.37;;;7.10;99.90;;;;;;5092467;23;20145;-93
2022/03/05 07:04:31;;;;;;;39.27;20.53;;;8.00;99.90;;;;;;5068308;23;20208;-92
2022/03/05 07:06:32;;;;;;;37.87;20.37;;;8.70;99.90;;;;;;5116957;23;20149;-92
2022/03/05 07:08:33;;;;;;;37.20;21.47;;;9.20;99.90;;;;;;5019864;23;1150779;-93
2022/03/05 07:10:34;;;;;;;41.37;21.40;;;9.70;99.90;;;;;;5117642;23;20721;-93
2022/03/05 07:12:34;;;;;;;34.70;20.97;;;9.70;99.90;;;;;;5143073;23;20155;-94
2022/03/05 07:14:36;;;;;;;38.50;21.27;;;9.90;99.90;;;;;;5117989;23;20716;-93
2022/03/05 07:16:36;;;;;;;38.73;21.50;;;10.10;99.90;;;;;;5093467;23;20177;-92
2022/03/05 07:18:37;;;;;;;35.93;20.20;;;9.70;99.90;;;;;;5117844;23;20625;-93
2022/03/05 07:20:38;;;;;;;34.17;20.30;;;9.00;99.90;;;;;;5069513;23;20153;-92
2022/03/05 07:22:39;;;;;;;36.20;20.77;;;9.00;99.90;;;;;;5143032;23;20206;-94
2022/03/05 07:24:39;;;;;;;37.40;21.07;;;9.50;99.90;;;;;;5069193;23;20170;-92
2022/03/05 07:26:40;;;;;;;39.07;20.13;;;10.00;99.90;;;;;;5118370;23;20494;-93
2022/03/05 07:28:41;;;;;;;41.50;20.10;;;10.10;99.90;;;;;;5118148;23;20145;-93
2022/03/05 07:30:42;;;;;;;38.00;21.57;;;10.20;99.90;;;;;;5093310;23;20557;-93
2022/03/05 07:32:44;;;;;;;33.55;21.27;;;10.30;99.90;;;;;;5069458;23;20153;-94
2022/03/05 07:34:45;;;;;;;43.58;21.20;;;11.10;99.90;;;;;;5117849;23;20261;-93
2022/03/05 07:36:46;;;;;;;33.05;20.48;;;11.50;99.90;;;;;;5118084;23;20145;-93
2022/03/05 07:38:46;;;;;;;33.60;20.88;;;11.10;99.90;;;;;;5068860;23;20678;-94
2022/03/05 07:40:47;;;;;;;36.05;21.42;;;11.00;99.90;;;;;;5118178;23;20222;-94
2022/03/05 07:42:48;;;;;;;36.25;21.40;;;10.70;99.90;;;;;;5068990;23;20242;-94
2022/03/05 07:44:49;;;;;;;34.10;21.30;;;9.70;99.90;;;;;;5117590;23;20227;-94
2022/03/05 07:46:49;;;;;;;34.87;20.37;;;9.70;99.90;;;;;;5093520;23;20153;-94
2022/03/05 07:48:50;;;;;;;35.97;20.90;;;10.10;99.90;;;;;;5118057;23;20158;-93
2022/03/05 07:50:51;;;;;;;34.23;20.67;;;10.30;99.90;;;;;;5093332;23;20621;-93
2022/03/05 07:52:52;;;;;;;34.88;21.35;;;10.00;99.90;;;;;;5142734;23;20147;-94
2022/03/05 07:54:52;;;;;;;38.63;20.70;;;10.30;99.90;;;;;;5093354;23;20235;-94
2022/03/05 07:56:53;;;;;;;34.38;21.58;;;11.00;99.90;;;;;;5093177;23;20276;-94
2022/03/05 07:58:54;;;;;;;39.95;21.48;;;11.40;99.90;;;;;;5068524;23;20477;-93
2022/03/05 08:00:55;;;;;;;34.83;21.40;;;11.70;99.90;;;;;;5142622;23;20586;-93
2022/03/05 08:02:55;;;;;;;37.63;20.45;;;11.70;99.90;;;;;;5093386;23;20157;-93
2022/03/05 08:04:56;;;;;;;33.30;20.15;;;11.50;99.90;;;;;;5117898;23;20267;-94
2022/03/05 08:06:57;;;;;;;37.30;20.90;;;11.00;99.90;;;;;;5093856;23;20231;-94
2022/03/05 08:08:59;;;;;;;34.70;21.08;;;10.40;99.90;;;;;;5092969;23;20259;-94
2022/03/05 08:11:00;;;;;;;38.63;21.10;;;10.50;99.90;;;;;;5068796;23;20238;-93
2022/03/05 08:13:00;;;;;;;38.03;21.52;;;11.20;99.90;;;;;;5142967;23;20151;-93
2022/03/05 08:15:03;;;;;;;31.13;20.27;;;11.50;99.90;;;;;;5093177;23;20706;-93
2022/03/05 08:17:04;;;;;;;36.00;21.08;;;12.00;99.90;;;;;;5093390;23;20145;-94
2022/03/05 08:19:05;;;;;;;37.95;20.08;;;12.60;99.90;;;;;;5143136;23;20231;-92
2022/03/05 08:21:07;;;;;;;34.00;19.63;;;13.10;99.90;;;;;;5093603;23;20580;-94
2022/03/05 08:23:08;;;;;;;33.90;20.30;;;12.70;99.90;;;;;;5119494;23;20614;-94
2022/03/05 08:25:09;;;;;;;33.47;20.75;;;13.30;99.90;;;;;;5070260;23;20169;-92
2022/03/05 08:27:10;;;;;;;33.88;20.58;;;13.80;99.90;;;;;;5070261;23;20201;-93
2022/03/05 08:29:10;;;;;;;29.58;20.15;;;13.90;99.90;;;;;;5144288;23;20151;-94
2022/03/05 08:31:12;;;;;;;35.17;20.08;;;14.00;99.90;;;;;;5094774;23;20196;-94
2022/03/05 08:33:12;;;;;;;31.20;21.10;;;14.00;99.90;;;;;;5119452;23;20645;-94
2022/03/05 08:35:14;;;;;;;29.40;18.98;;;14.20;99.90;;;;;;5069942;23;20193;-95
2022/03/05 08:37:15;;;;;;;32.45;20.35;;;14.40;99.90;;;;;;5119507;23;20172;-95
2022/03/05 08:39:15;;;;;;;30.63;20.30;;;14.70;99.90;;;;;;5119373;23;20159;-94
2022/03/05 08:41:16;;;;;;;37.53;21.20;;;14.90;99.90;;;;;;5070265;23;20146;-94
2022/03/05 08:43:17;;;;;;;33.75;20.67;;;15.20;99.90;;;;;;5119274;23;20191;-94
2022/03/05 08:45:17;;;;;;;33.13;21.15;;;14.80;99.90;;;;;;5070024;23;20196;-95
2022/03/05 08:47:18;;;;;;;36.92;22.25;;;15.30;99.90;;;;;;5119109;23;20148;-95
2022/03/05 08:49:19;;;;;;;30.65;20.52;;;14.80;99.90;;;;;;5070131;23;20150;-94
2022/03/05 08:51:20;;;;;;;34.97;21.30;;;15.50;99.90;;;;;;5143765;23;20152;-95
2022/03/05 08:53:20;;;;;;;35.22;21.10;;;15.30;99.90;;;;;;5070263;23;20185;-94
2022/03/05 08:55:21;;;;;;;41.25;22.50;;;15.10;99.90;;;;;;5119491;23;20211;-94
2022/03/05 08:57:24;;;;;;;35.90;22.55;;;14.90;99.90;;;;;;5119626;23;20149;-94
2022/03/05 08:59:25;;;;;;;31.45;21.17;;;15.40;99.90;;;;;;5119572;23;20160;-94
2022/03/05 09:01:25;;;;;;;33.25;21.17;;;15.60;99.90;;;;;;5094801;23;20145;-95
2022/03/05 09:03:27;;;;;;;35.13;22.88;;;15.70;99.90;;;;;;5119530;23;20247;-95
2022/03/05 09:05:27;;;;;;;39.72;22.73;;;14.90;99.90;;;;;;5119117;23;20203;-93
2022/03/05 09:07:29;;;;;;;40.03;22.55;;;15.50;99.90;;;;;;5093665;23;20623;-92
2022/03/05 09:09:29;;;;;;;38.35;23.10;;;15.30;99.90;;;;;;5142904;23;20156;-91
2022/03/05 09:11:31;;;;;;;40.58;22.98;;;15.30;99.90;;;;;;5094120;23;20149;-91
2022/03/05 09:13:31;;;;;;;48.03;23.15;;;15.50;99.90;;;;;;5094180;23;20607;-92
2022/03/05 09:15:32;;;;;;;36.22;23.23;;;16.30;99.90;;;;;;5118467;23;20254;-92
2022/03/05 09:17:33;;;;;;;39.38;24.40;;;15.10;99.90;;;;;;5094234;23;20149;-92
2022/03/05 09:19:33;;;;;;;44.15;24.88;;;15.60;99.90;;;;;;5094336;23;20168;-91
2022/03/05 09:21:36;;;;;;;43.15;25.83;;;16.00;99.90;;;;;;5069704;23;20150;-92
2022/03/05 09:23:37;;;;;;;47.05;26.88;;;15.00;99.90;;;;;;5069909;23;20161;-93
2022/03/05 09:25:37;;;;;;;42.90;26.27;;;13.10;99.90;;;;;;5143359;23;20192;-90
2022/03/05 09:27:39;;;;;;;45.13;27.23;;;11.90;99.90;;;;;;5069979;23;20209;-92
2022/03/05 09:29:40;;;;;;;53.85;28.17;;;12.20;99.90;;;;;;5118842;23;20199;-89
2022/03/05 09:31:41;;;;;;;42.67;27.10;;;11.90;99.90;;;;;;5094330;23;20164;-92
2022/03/05 09:33:42;;;;;;;43.03;27.30;;;11.80;99.90;;;;;;5069133;23;20154;-92
2022/03/05 09:35:43;;;;;;;47.85;28.20;;;11.40;99.90;;;;;;5094073;23;20567;-91
2022/03/05 09:37:44;;;;;;;45.55;28.67;;;12.10;99.90;;;;;;5144062;23;20147;-92
2022/03/05 09:39:46;;;;;;;46.40;29.90;;;12.80;99.90;;;;;;5069825;23;20181;-92
2022/03/05 09:41:47;;;;;;;53.08;29.73;;;12.70;99.90;;;;;;5118838;23;20153;-91
2022/03/05 09:43:48;;;;;;;49.60;28.63;;;12.70;99.90;;;;;;5094012;23;20193;-92
2022/03/05 09:45:49;;;;;;;45.47;29.48;;;13.00;99.90;;;;;;5143493;23;20179;-92
2022/03/05 09:47:50;;;;;;;43.45;28.85;;;13.80;99.90;;;;;;5069719;23;20150;-92
2022/03/05 09:49:51;;;;;;;52.55;30.40;;;14.30;99.90;;;;;;5118680;23;20459;-93
2022/03/05 09:51:53;;;;;;;47.67;28.90;;;13.50;99.90;;;;;;5093926;23;20173;-92
2022/03/05 09:53:54;;;;;;;50.00;30.10;;;12.60;99.90;;;;;;5118320;23;20152;-93
2022/03/05 09:55:55;;;;;;;47.53;29.00;;;12.40;99.90;;;;;;5118494;23;20239;-91
2022/03/05 09:57:56;;;;;;;53.35;30.08;;;12.70;99.90;;;;;;5093746;23;20157;-93
2022/03/05 09:59:56;;;;;;;43.28;27.65;;;12.50;99.90;;;;;;5093810;23;20149;-92
2022/03/05 10:01:58;;;;;;;53.50;29.35;;;12.00;99.90;;;;;;5118483;23;20676;-93
2022/03/05 10:04:01;;;;;;;47.47;28.67;;;11.90;99.90;;;;;;5093800;23;20212;-92
2022/03/05 10:06:22;;;;;;;45.72;27.80;;;10.90;99.90;;;;;;5143318;23;20151;-92
2022/03/05 10:08:25;;;;;;;52.83;30.23;;;9.80;99.90;;;;;;5093697;23;20588;-91
2022/03/05 10:10:27;;;;;;;51.63;29.43;;;9.10;99.90;;;;;;5118215;23;20222;-93
2022/03/05 10:12:33;;;;;;;57.97;30.40;;;8.80;99.90;;;;;;5093622;23;20674;-91
2022/03/05 10:14:34;;;;;;;58.87;30.77;;;8.90;99.90;;;;;;5093667;23;20208;-91
2022/03/05 10:16:35;;;;;;;51.80;30.57;;;8.70;99.90;;;;;;5143157;23;20249;-89
2022/03/05 10:18:38;;;;;;;55.73;29.77;;;9.10;99.90;;;;;;5093975;23;20241;-92